sensor_id;sensor_type;location;lat;lon;timestamp;P1;durP1;ratioP1;P2;durP2;ratioP2
14088;SDS011;7120;52.890;6.040;2024-03-08T00:01:52;34.63;;;23.07;;
14088;SDS011;7120;52.890;6.040;2024-03-08T00:04:18;40.10;;;24.30;;
14088;SDS011;7120;52.890;6.040;2024-03-08T00:06:43;36.73;;;23.03;;
14088;SDS011;7120;52.890;6.040;2024-03-08T00:09:11;37.87;;;22.93;;
14088;SDS011;7120;52.890;6.040;2024-03-08T00:11:37;33.10;;;22.93;;
14088;SDS011;7120;52.890;6.040;2024-03-08T00:14:02;35.77;;;23.60;;
14088;SDS011;7120;52.890;6.040;2024-03-08T00:16:31;33.67;;;22.80;;
14088;SDS011;7120;52.890;6.040;2024-03-08T00:18:57;33.20;;;24.23;;
14088;SDS011;7120;52.890;6.040;2024-03-08T00:21:22;31.57;;;23.97;;
14088;SDS011;7120;52.890;6.040;2024-03-08T00:23:47;34.67;;;24.07;;
14088;SDS011;7120;52.890;6.040;2024-03-08T00:26:13;33.33;;;23.77;;
14088;SDS011;7120;52.890;6.040;2024-03-08T00:28:38;33.70;;;23.40;;
14088;SDS011;7120;52.890;6.040;2024-03-08T00:31:03;31.10;;;22.70;;
14088;SDS011;7120;52.890;6.040;2024-03-08T00:33:29;35.30;;;23.60;;
14088;SDS011;7120;52.890;6.040;2024-03-08T00:35:54;32.30;;;23.07;;
14088;SDS011;7120;52.890;6.040;2024-03-08T00:38:19;34.50;;;23.90;;
14088;SDS011;7120;52.890;6.040;2024-03-08T00:40:45;38.93;;;25.33;;
14088;SDS011;7120;52.890;6.040;2024-03-08T00:43:10;34.87;;;24.40;;
14088;SDS011;7120;52.890;6.040;2024-03-08T00:45:36;36.00;;;24.57;;
14088;SDS011;7120;52.890;6.040;2024-03-08T00:48:02;33.63;;;24.27;;
14088;SDS011;7120;52.890;6.040;2024-03-08T00:50:28;35.30;;;23.30;;
14088;SDS011;7120;52.890;6.040;2024-03-08T00:52:53;33.60;;;24.60;;
14088;SDS011;7120;52.890;6.040;2024-03-08T00:55:19;34.70;;;23.73;;
14088;SDS011;7120;52.890;6.040;2024-03-08T00:57:44;36.20;;;23.97;;
14088;SDS011;7120;52.890;6.040;2024-03-08T01:00:10;36.37;;;24.33;;
14088;SDS011;7120;52.890;6.040;2024-03-08T01:02:37;36.90;;;25.23;;
14088;SDS011;7120;52.890;6.040;2024-03-08T01:05:03;37.07;;;24.83;;
14088;SDS011;7120;52.890;6.040;2024-03-08T01:07:32;31.60;;;23.17;;
14088;SDS011;7120;52.890;6.040;2024-03-08T01:10:03;33.00;;;25.07;;
14088;SDS011;7120;52.890;6.040;2024-03-08T01:12:29;34.13;;;23.63;;
14088;SDS011;7120;52.890;6.040;2024-03-08T01:14:55;35.80;;;24.67;;
14088;SDS011;7120;52.890;6.040;2024-03-08T01:17:20;34.57;;;24.50;;
14088;SDS011;7120;52.890;6.040;2024-03-08T01:19:46;35.53;;;24.90;;
14088;SDS011;7120;52.890;6.040;2024-03-08T01:22:12;35.17;;;23.70;;
14088;SDS011;7120;52.890;6.040;2024-03-08T01:24:37;37.37;;;25.23;;
14088;SDS011;7120;52.890;6.040;2024-03-08T01:27:02;39.37;;;25.77;;
14088;SDS011;7120;52.890;6.040;2024-03-08T01:29:28;35.93;;;24.67;;
14088;SDS011;7120;52.890;6.040;2024-03-08T01:31:55;37.47;;;26.00;;
14088;SDS011;7120;52.890;6.040;2024-03-08T01:34:21;36.67;;;25.13;;
14088;SDS011;7120;52.890;6.040;2024-03-08T01:36:47;36.57;;;26.10;;
14088;SDS011;7120;52.890;6.040;2024-03-08T01:39:13;35.60;;;25.67;;
14088;SDS011;7120;52.890;6.040;2024-03-08T01:41:39;38.53;;;27.00;;
14088;SDS011;7120;52.890;6.040;2024-03-08T01:44:05;39.83;;;25.43;;
14088;SDS011;7120;52.890;6.040;2024-03-08T01:46:32;41.80;;;26.83;;
14088;SDS011;7120;52.890;6.040;2024-03-08T01:48:59;42.63;;;26.47;;
14088;SDS011;7120;52.890;6.040;2024-03-08T01:51:26;38.10;;;26.33;;
14088;SDS011;7120;52.890;6.040;2024-03-08T01:53:53;35.23;;;25.27;;
14088;SDS011;7120;52.890;6.040;2024-03-08T01:56:21;40.17;;;26.90;;
14088;SDS011;7120;52.890;6.040;2024-03-08T01:58:46;33.77;;;25.77;;
14088;SDS011;7120;52.890;6.040;2024-03-08T02:01:12;38.03;;;27.20;;
14088;SDS011;7120;52.890;6.040;2024-03-08T02:03:40;37.23;;;25.70;;
14088;SDS011;7120;52.890;6.040;2024-03-08T02:06:08;38.83;;;25.53;;
14088;SDS011;7120;52.890;6.040;2024-03-08T02:08:36;36.37;;;27.00;;
14088;SDS011;7120;52.890;6.040;2024-03-08T02:11:02;39.40;;;27.00;;
14088;SDS011;7120;52.890;6.040;2024-03-08T02:13:28;38.60;;;26.70;;
14088;SDS011;7120;52.890;6.040;2024-03-08T02:18:19;40.23;;;26.63;;
14088;SDS011;7120;52.890;6.040;2024-03-08T02:20:46;35.43;;;26.00;;
14088;SDS011;7120;52.890;6.040;2024-03-08T02:23:16;40.57;;;27.00;;
14088;SDS011;7120;52.890;6.040;2024-03-08T02:25:41;38.60;;;27.50;;
14088;SDS011;7120;52.890;6.040;2024-03-08T02:28:09;38.10;;;26.93;;
14088;SDS011;7120;52.890;6.040;2024-03-08T02:30:36;39.90;;;26.73;;
14088;SDS011;7120;52.890;6.040;2024-03-08T02:33:01;40.00;;;27.17;;
14088;SDS011;7120;52.890;6.040;2024-03-08T02:35:26;36.60;;;26.37;;
14088;SDS011;7120;52.890;6.040;2024-03-08T02:37:52;40.37;;;27.53;;
14088;SDS011;7120;52.890;6.040;2024-03-08T02:40:18;35.40;;;25.83;;
14088;SDS011;7120;52.890;6.040;2024-03-08T02:42:43;37.97;;;26.70;;
14088;SDS011;7120;52.890;6.040;2024-03-08T02:45:08;38.57;;;26.03;;
14088;SDS011;7120;52.890;6.040;2024-03-08T02:47:35;36.13;;;26.67;;
14088;SDS011;7120;52.890;6.040;2024-03-08T02:50:00;34.40;;;25.57;;
14088;SDS011;7120;52.890;6.040;2024-03-08T02:52:26;39.50;;;26.60;;
14088;SDS011;7120;52.890;6.040;2024-03-08T02:54:52;40.43;;;26.23;;
14088;SDS011;7120;52.890;6.040;2024-03-08T02:57:17;37.80;;;27.73;;
14088;SDS011;7120;52.890;6.040;2024-03-08T02:59:43;34.03;;;25.23;;
14088;SDS011;7120;52.890;6.040;2024-03-08T03:02:08;37.33;;;26.87;;
14088;SDS011;7120;52.890;6.040;2024-03-08T03:04:35;39.27;;;26.30;;
14088;SDS011;7120;52.890;6.040;2024-03-08T03:07:01;36.77;;;25.67;;
14088;SDS011;7120;52.890;6.040;2024-03-08T03:09:26;35.53;;;25.20;;
14088;SDS011;7120;52.890;6.040;2024-03-08T03:11:52;38.80;;;26.13;;
14088;SDS011;7120;52.890;6.040;2024-03-08T03:14:21;35.67;;;26.30;;
14088;SDS011;7120;52.890;6.040;2024-03-08T03:16:47;37.30;;;26.00;;
14088;SDS011;7120;52.890;6.040;2024-03-08T03:19:12;37.27;;;25.40;;
14088;SDS011;7120;52.890;6.040;2024-03-08T03:21:38;36.23;;;25.50;;
14088;SDS011;7120;52.890;6.040;2024-03-08T03:24:03;35.77;;;25.73;;
14088;SDS011;7120;52.890;6.040;2024-03-08T03:26:34;37.30;;;26.40;;
14088;SDS011;7120;52.890;6.040;2024-03-08T03:29:02;35.83;;;25.03;;
14088;SDS011;7120;52.890;6.040;2024-03-08T03:31:28;36.57;;;26.33;;
14088;SDS011;7120;52.890;6.040;2024-03-08T03:33:53;32.83;;;25.47;;
14088;SDS011;7120;52.890;6.040;2024-03-08T03:36:19;34.40;;;26.07;;
14088;SDS011;7120;52.890;6.040;2024-03-08T03:38:45;34.57;;;25.67;;
14088;SDS011;7120;52.890;6.040;2024-03-08T03:41:10;38.03;;;26.10;;
14088;SDS011;7120;52.890;6.040;2024-03-08T03:43:36;38.07;;;26.53;;
14088;SDS011;7120;52.890;6.040;2024-03-08T03:46:05;37.67;;;24.47;;
14088;SDS011;7120;52.890;6.040;2024-03-08T03:48:32;37.40;;;26.30;;
14088;SDS011;7120;52.890;6.040;2024-03-08T03:50:57;37.93;;;25.83;;
14088;SDS011;7120;52.890;6.040;2024-03-08T03:53:26;37.27;;;26.87;;
14088;SDS011;7120;52.890;6.040;2024-03-08T03:55:52;34.40;;;25.50;;
14088;SDS011;7120;52.890;6.040;2024-03-08T03:58:17;34.90;;;25.13;;
14088;SDS011;7120;52.890;6.040;2024-03-08T04:00:47;39.50;;;26.73;;
14088;SDS011;7120;52.890;6.040;2024-03-08T04:03:13;35.43;;;26.17;;
14088;SDS011;7120;52.890;6.040;2024-03-08T04:05:38;39.20;;;26.90;;
14088;SDS011;7120;52.890;6.040;2024-03-08T04:08:04;36.60;;;26.40;;
14088;SDS011;7120;52.890;6.040;2024-03-08T04:10:29;36.47;;;26.63;;
14088;SDS011;7120;52.890;6.040;2024-03-08T04:12:55;36.07;;;24.93;;
14088;SDS011;7120;52.890;6.040;2024-03-08T04:15:21;39.13;;;27.80;;
14088;SDS011;7120;52.890;6.040;2024-03-08T04:17:48;34.63;;;26.83;;
14088;SDS011;7120;52.890;6.040;2024-03-08T04:20:13;35.47;;;26.97;;
14088;SDS011;7120;52.890;6.040;2024-03-08T04:22:39;34.10;;;26.83;;
14088;SDS011;7120;52.890;6.040;2024-03-08T04:25:05;37.00;;;27.03;;
14088;SDS011;7120;52.890;6.040;2024-03-08T04:27:31;41.53;;;28.17;;
14088;SDS011;7120;52.890;6.040;2024-03-08T04:30:01;36.53;;;25.93;;
14088;SDS011;7120;52.890;6.040;2024-03-08T04:32:32;36.97;;;26.40;;
14088;SDS011;7120;52.890;6.040;2024-03-08T04:34:57;39.47;;;27.00;;
14088;SDS011;7120;52.890;6.040;2024-03-08T04:37:22;35.80;;;25.93;;
14088;SDS011;7120;52.890;6.040;2024-03-08T04:39:48;36.97;;;26.50;;
14088;SDS011;7120;52.890;6.040;2024-03-08T04:42:13;36.10;;;26.43;;
14088;SDS011;7120;52.890;6.040;2024-03-08T04:44:40;36.57;;;27.97;;
14088;SDS011;7120;52.890;6.040;2024-03-08T04:47:05;37.13;;;26.80;;
14088;SDS011;7120;52.890;6.040;2024-03-08T04:49:32;40.07;;;28.03;;
14088;SDS011;7120;52.890;6.040;2024-03-08T04:51:59;36.83;;;26.87;;
14088;SDS011;7120;52.890;6.040;2024-03-08T04:54:27;43.33;;;28.07;;
14088;SDS011;7120;52.890;6.040;2024-03-08T04:56:53;40.53;;;27.03;;
14088;SDS011;7120;52.890;6.040;2024-03-08T04:59:18;37.37;;;26.60;;
14088;SDS011;7120;52.890;6.040;2024-03-08T05:01:44;38.50;;;26.83;;
14088;SDS011;7120;52.890;6.040;2024-03-08T05:04:09;36.57;;;27.00;;
14088;SDS011;7120;52.890;6.040;2024-03-08T05:06:35;38.20;;;27.10;;
14088;SDS011;7120;52.890;6.040;2024-03-08T05:09:01;40.87;;;28.03;;
14088;SDS011;7120;52.890;6.040;2024-03-08T05:11:38;42.17;;;27.50;;
14088;SDS011;7120;52.890;6.040;2024-03-08T05:14:04;36.53;;;27.17;;
14088;SDS011;7120;52.890;6.040;2024-03-08T05:16:29;40.10;;;27.30;;
14088;SDS011;7120;52.890;6.040;2024-03-08T05:18:55;38.80;;;26.77;;
14088;SDS011;7120;52.890;6.040;2024-03-08T05:21:21;39.17;;;27.37;;
14088;SDS011;7120;52.890;6.040;2024-03-08T05:23:47;42.43;;;28.10;;
14088;SDS011;7120;52.890;6.040;2024-03-08T05:26:12;38.63;;;29.77;;
14088;SDS011;7120;52.890;6.040;2024-03-08T05:28:39;44.13;;;30.87;;
14088;SDS011;7120;52.890;6.040;2024-03-08T05:31:04;44.07;;;31.23;;
14088;SDS011;7120;52.890;6.040;2024-03-08T05:33:30;42.20;;;32.03;;
14088;SDS011;7120;52.890;6.040;2024-03-08T05:35:55;41.83;;;30.17;;
14088;SDS011;7120;52.890;6.040;2024-03-08T05:38:21;41.67;;;28.93;;
14088;SDS011;7120;52.890;6.040;2024-03-08T05:40:46;39.07;;;29.87;;
14088;SDS011;7120;52.890;6.040;2024-03-08T05:43:11;40.17;;;29.83;;
14088;SDS011;7120;52.890;6.040;2024-03-08T05:45:37;40.33;;;30.33;;
14088;SDS011;7120;52.890;6.040;2024-03-08T05:48:02;40.47;;;30.07;;
14088;SDS011;7120;52.890;6.040;2024-03-08T05:50:28;55.97;;;40.90;;
14088;SDS011;7120;52.890;6.040;2024-03-08T05:52:53;44.90;;;32.23;;
14088;SDS011;7120;52.890;6.040;2024-03-08T05:55:19;43.90;;;30.03;;
14088;SDS011;7120;52.890;6.040;2024-03-08T05:57:44;42.87;;;27.83;;
14088;SDS011;7120;52.890;6.040;2024-03-08T06:00:10;42.07;;;30.90;;
14088;SDS011;7120;52.890;6.040;2024-03-08T06:02:36;41.27;;;29.80;;
14088;SDS011;7120;52.890;6.040;2024-03-08T06:05:05;40.87;;;29.10;;
14088;SDS011;7120;52.890;6.040;2024-03-08T06:07:35;43.90;;;29.67;;
14088;SDS011;7120;52.890;6.040;2024-03-08T06:10:01;37.87;;;27.80;;
14088;SDS011;7120;52.890;6.040;2024-03-08T06:12:27;36.80;;;27.17;;
14088;SDS011;7120;52.890;6.040;2024-03-08T06:14:54;42.37;;;28.00;;
14088;SDS011;7120;52.890;6.040;2024-03-08T06:17:19;41.03;;;28.83;;
14088;SDS011;7120;52.890;6.040;2024-03-08T06:19:45;36.50;;;27.93;;
14088;SDS011;7120;52.890;6.040;2024-03-08T06:22:11;55.93;;;40.93;;
14088;SDS011;7120;52.890;6.040;2024-03-08T06:24:36;39.53;;;28.93;;
14088;SDS011;7120;52.890;6.040;2024-03-08T06:27:03;39.90;;;27.40;;
14088;SDS011;7120;52.890;6.040;2024-03-08T06:29:28;39.33;;;30.10;;
14088;SDS011;7120;52.890;6.040;2024-03-08T06:31:54;38.83;;;28.27;;
14088;SDS011;7120;52.890;6.040;2024-03-08T06:34:20;39.50;;;28.47;;
14088;SDS011;7120;52.890;6.040;2024-03-08T06:36:46;41.73;;;29.00;;
14088;SDS011;7120;52.890;6.040;2024-03-08T06:39:11;39.10;;;26.97;;
14088;SDS011;7120;52.890;6.040;2024-03-08T06:41:36;37.23;;;28.30;;
14088;SDS011;7120;52.890;6.040;2024-03-08T06:44:02;36.77;;;26.93;;
14088;SDS011;7120;52.890;6.040;2024-03-08T06:46:28;35.50;;;26.70;;
14088;SDS011;7120;52.890;6.040;2024-03-08T06:48:53;38.50;;;26.13;;
14088;SDS011;7120;52.890;6.040;2024-03-08T06:51:18;37.43;;;26.33;;
14088;SDS011;7120;52.890;6.040;2024-03-08T06:53:44;36.90;;;26.60;;
14088;SDS011;7120;52.890;6.040;2024-03-08T06:56:09;35.23;;;25.90;;
14088;SDS011;7120;52.890;6.040;2024-03-08T06:58:35;37.30;;;26.80;;
14088;SDS011;7120;52.890;6.040;2024-03-08T07:01:00;34.93;;;26.47;;
14088;SDS011;7120;52.890;6.040;2024-03-08T07:03:28;35.00;;;25.37;;
14088;SDS011;7120;52.890;6.040;2024-03-08T07:05:55;32.97;;;24.90;;
14088;SDS011;7120;52.890;6.040;2024-03-08T07:08:21;38.83;;;25.63;;
14088;SDS011;7120;52.890;6.040;2024-03-08T07:10:48;34.10;;;24.97;;
14088;SDS011;7120;52.890;6.040;2024-03-08T07:13:14;34.27;;;25.17;;
14088;SDS011;7120;52.890;6.040;2024-03-08T07:15:40;36.43;;;25.67;;
14088;SDS011;7120;52.890;6.040;2024-03-08T07:18:05;32.80;;;24.10;;
14088;SDS011;7120;52.890;6.040;2024-03-08T07:20:34;33.63;;;24.27;;
14088;SDS011;7120;52.890;6.040;2024-03-08T07:22:59;33.60;;;24.13;;
14088;SDS011;7120;52.890;6.040;2024-03-08T07:25:25;30.57;;;23.37;;
14088;SDS011;7120;52.890;6.040;2024-03-08T07:27:54;32.93;;;24.10;;
14088;SDS011;7120;52.890;6.040;2024-03-08T07:30:21;31.23;;;22.40;;
14088;SDS011;7120;52.890;6.040;2024-03-08T07:33:06;31.43;;;22.90;;
14088;SDS011;7120;52.890;6.040;2024-03-08T07:35:32;33.37;;;23.47;;
14088;SDS011;7120;52.890;6.040;2024-03-08T07:37:58;29.13;;;23.27;;
14088;SDS011;7120;52.890;6.040;2024-03-08T07:40:25;30.40;;;23.27;;
14088;SDS011;7120;52.890;6.040;2024-03-08T07:42:50;31.93;;;23.13;;
14088;SDS011;7120;52.890;6.040;2024-03-08T07:45:16;28.03;;;21.33;;
14088;SDS011;7120;52.890;6.040;2024-03-08T07:47:41;30.30;;;22.97;;
14088;SDS011;7120;52.890;6.040;2024-03-08T07:50:07;31.50;;;23.27;;
14088;SDS011;7120;52.890;6.040;2024-03-08T07:52:33;31.50;;;23.03;;
14088;SDS011;7120;52.890;6.040;2024-03-08T07:55:02;31.70;;;22.77;;
14088;SDS011;7120;52.890;6.040;2024-03-08T07:57:30;33.60;;;24.20;;
14088;SDS011;7120;52.890;6.040;2024-03-08T07:59:56;33.50;;;22.47;;
14088;SDS011;7120;52.890;6.040;2024-03-08T08:02:22;27.37;;;20.77;;
14088;SDS011;7120;52.890;6.040;2024-03-08T08:04:50;28.37;;;23.43;;
14088;SDS011;7120;52.890;6.040;2024-03-08T08:07:15;29.47;;;22.70;;
14088;SDS011;7120;52.890;6.040;2024-03-08T08:09:41;31.60;;;22.90;;
14088;SDS011;7120;52.890;6.040;2024-03-08T08:12:08;28.03;;;21.73;;
14088;SDS011;7120;52.890;6.040;2024-03-08T08:14:37;30.47;;;24.43;;
14088;SDS011;7120;52.890;6.040;2024-03-08T08:17:03;29.40;;;23.03;;
14088;SDS011;7120;52.890;6.040;2024-03-08T08:19:29;30.87;;;22.13;;
14088;SDS011;7120;52.890;6.040;2024-03-08T08:21:55;29.30;;;22.50;;
14088;SDS011;7120;52.890;6.040;2024-03-08T08:24:20;29.87;;;22.20;;
14088;SDS011;7120;52.890;6.040;2024-03-08T08:26:46;28.13;;;20.83;;
14088;SDS011;7120;52.890;6.040;2024-03-08T08:29:12;27.87;;;21.57;;
14088;SDS011;7120;52.890;6.040;2024-03-08T08:31:37;25.33;;;20.77;;
14088;SDS011;7120;52.890;6.040;2024-03-08T08:34:03;28.30;;;21.87;;
14088;SDS011;7120;52.890;6.040;2024-03-08T08:36:28;26.87;;;21.57;;
14088;SDS011;7120;52.890;6.040;2024-03-08T08:38:54;23.97;;;18.97;;
14088;SDS011;7120;52.890;6.040;2024-03-08T08:41:21;20.40;;;17.73;;
14088;SDS011;7120;52.890;6.040;2024-03-08T08:43:47;25.20;;;18.70;;
14088;SDS011;7120;52.890;6.040;2024-03-08T08:46:18;25.20;;;18.67;;
14088;SDS011;7120;52.890;6.040;2024-03-08T08:48:44;22.30;;;18.57;;
14088;SDS011;7120;52.890;6.040;2024-03-08T08:51:10;20.73;;;17.50;;
14088;SDS011;7120;52.890;6.040;2024-03-08T08:53:42;21.23;;;18.07;;
14088;SDS011;7120;52.890;6.040;2024-03-08T08:56:08;21.80;;;19.50;;
14088;SDS011;7120;52.890;6.040;2024-03-08T08:58:34;21.83;;;18.17;;
14088;SDS011;7120;52.890;6.040;2024-03-08T09:00:59;22.87;;;20.43;;
14088;SDS011;7120;52.890;6.040;2024-03-08T09:03:25;24.93;;;22.33;;
14088;SDS011;7120;52.890;6.040;2024-03-08T09:05:52;24.63;;;22.03;;
14088;SDS011;7120;52.890;6.040;2024-03-08T09:08:17;24.07;;;21.50;;
14088;SDS011;7120;52.890;6.040;2024-03-08T09:10:43;21.37;;;19.17;;
14088;SDS011;7120;52.890;6.040;2024-03-08T09:13:08;22.27;;;19.87;;
14088;SDS011;7120;52.890;6.040;2024-03-08T09:15:35;21.67;;;19.37;;
14088;SDS011;7120;52.890;6.040;2024-03-08T09:18:02;21.93;;;19.70;;
14088;SDS011;7120;52.890;6.040;2024-03-08T09:20:27;23.50;;;20.03;;
14088;SDS011;7120;52.890;6.040;2024-03-08T09:22:53;25.60;;;21.77;;
14088;SDS011;7120;52.890;6.040;2024-03-08T09:25:19;23.73;;;21.23;;
14088;SDS011;7120;52.890;6.040;2024-03-08T09:27:45;22.90;;;20.60;;
14088;SDS011;7120;52.890;6.040;2024-03-08T09:30:11;25.30;;;22.67;;
14088;SDS011;7120;52.890;6.040;2024-03-08T09:32:38;24.53;;;21.93;;
14088;SDS011;7120;52.890;6.040;2024-03-08T09:35:03;23.33;;;20.70;;
14088;SDS011;7120;52.890;6.040;2024-03-08T09:37:32;22.53;;;19.97;;
14088;SDS011;7120;52.890;6.040;2024-03-08T09:39:58;22.00;;;19.73;;
14088;SDS011;7120;52.890;6.040;2024-03-08T09:42:24;24.03;;;21.47;;
14088;SDS011;7120;52.890;6.040;2024-03-08T09:44:49;23.00;;;20.60;;
14088;SDS011;7120;52.890;6.040;2024-03-08T09:47:15;23.23;;;20.73;;
14088;SDS011;7120;52.890;6.040;2024-03-08T09:49:41;23.80;;;21.30;;
14088;SDS011;7120;52.890;6.040;2024-03-08T09:52:08;31.80;;;26.87;;
14088;SDS011;7120;52.890;6.040;2024-03-08T09:54:35;23.37;;;20.93;;
14088;SDS011;7120;52.890;6.040;2024-03-08T09:57:00;25.00;;;22.50;;
14088;SDS011;7120;52.890;6.040;2024-03-08T09:59:28;27.03;;;23.77;;
14088;SDS011;7120;52.890;6.040;2024-03-08T10:02:03;29.80;;;26.20;;
14088;SDS011;7120;52.890;6.040;2024-03-08T10:04:28;24.87;;;22.23;;
14088;SDS011;7120;52.890;6.040;2024-03-08T10:06:55;26.53;;;23.73;;
14088;SDS011;7120;52.890;6.040;2024-03-08T10:09:24;23.13;;;20.87;;
14088;SDS011;7120;52.890;6.040;2024-03-08T10:11:58;23.90;;;21.50;;
14088;SDS011;7120;52.890;6.040;2024-03-08T10:14:24;26.33;;;22.83;;
14088;SDS011;7120;52.890;6.040;2024-03-08T10:16:51;25.47;;;22.77;;
14088;SDS011;7120;52.890;6.040;2024-03-08T10:19:17;24.97;;;22.27;;
14088;SDS011;7120;52.890;6.040;2024-03-08T10:21:49;24.60;;;22.00;;
14088;SDS011;7120;52.890;6.040;2024-03-08T10:24:14;25.57;;;22.13;;
14088;SDS011;7120;52.890;6.040;2024-03-08T10:26:40;25.70;;;23.03;;
14088;SDS011;7120;52.890;6.040;2024-03-08T10:29:05;25.27;;;22.20;;
14088;SDS011;7120;52.890;6.040;2024-03-08T10:31:32;23.30;;;20.90;;
14088;SDS011;7120;52.890;6.040;2024-03-08T10:33:58;23.37;;;20.97;;
14088;SDS011;7120;52.890;6.040;2024-03-08T10:36:23;23.67;;;21.07;;
14088;SDS011;7120;52.890;6.040;2024-03-08T10:38:50;22.47;;;20.27;;
14088;SDS011;7120;52.890;6.040;2024-03-08T10:41:18;22.57;;;20.23;;
14088;SDS011;7120;52.890;6.040;2024-03-08T10:43:52;24.03;;;21.43;;
14088;SDS011;7120;52.890;6.040;2024-03-08T10:47:01;24.03;;;21.53;;
14088;SDS011;7120;52.890;6.040;2024-03-08T10:49:38;23.43;;;21.00;;
14088;SDS011;7120;52.890;6.040;2024-03-08T10:52:07;24.70;;;21.40;;
14088;SDS011;7120;52.890;6.040;2024-03-08T10:54:36;25.00;;;22.50;;
14088;SDS011;7120;52.890;6.040;2024-03-08T10:57:05;23.63;;;21.23;;
14088;SDS011;7120;52.890;6.040;2024-03-08T10:59:34;23.97;;;21.37;;
14088;SDS011;7120;52.890;6.040;2024-03-08T11:02:00;24.60;;;22.00;;
14088;SDS011;7120;52.890;6.040;2024-03-08T11:04:25;23.60;;;21.10;;
14088;SDS011;7120;52.890;6.040;2024-03-08T11:06:51;23.33;;;20.77;;
14088;SDS011;7120;52.890;6.040;2024-03-08T11:09:30;25.10;;;22.07;;
14088;SDS011;7120;52.890;6.040;2024-03-08T11:14:51;23.23;;;20.70;;
14088;SDS011;7120;52.890;6.040;2024-03-08T11:17:21;24.50;;;21.90;;
14088;SDS011;7120;52.890;6.040;2024-03-08T11:19:52;24.33;;;21.80;;
14088;SDS011;7120;52.890;6.040;2024-03-08T11:22:27;24.50;;;22.00;;
14088;SDS011;7120;52.890;6.040;2024-03-08T11:25:02;21.80;;;19.60;;
14088;SDS011;7120;52.890;6.040;2024-03-08T11:27:33;24.00;;;21.50;;
14088;SDS011;7120;52.890;6.040;2024-03-08T11:30:02;23.93;;;21.53;;
14088;SDS011;7120;52.890;6.040;2024-03-08T11:32:50;26.00;;;22.83;;
14088;SDS011;7120;52.890;6.040;2024-03-08T11:35:19;22.47;;;20.33;;
14088;SDS011;7120;52.890;6.040;2024-03-08T11:37:46;22.97;;;20.73;;
14088;SDS011;7120;52.890;6.040;2024-03-08T11:40:13;22.47;;;20.13;;
14088;SDS011;7120;52.890;6.040;2024-03-08T11:42:45;23.30;;;21.00;;
14088;SDS011;7120;52.890;6.040;2024-03-08T11:45:16;23.87;;;21.37;;
14088;SDS011;7120;52.890;6.040;2024-03-08T11:47:46;22.63;;;20.33;;
14088;SDS011;7120;52.890;6.040;2024-03-08T11:50:13;22.70;;;20.43;;
14088;SDS011;7120;52.890;6.040;2024-03-08T11:52:39;23.87;;;21.47;;
14088;SDS011;7120;52.890;6.040;2024-03-08T11:55:04;22.37;;;20.10;;
14088;SDS011;7120;52.890;6.040;2024-03-08T11:57:31;23.50;;;21.10;;
14088;SDS011;7120;52.890;6.040;2024-03-08T11:59:57;23.47;;;21.03;;
14088;SDS011;7120;52.890;6.040;2024-03-08T12:02:30;21.87;;;19.70;;
14088;SDS011;7120;52.890;6.040;2024-03-08T12:04:59;22.60;;;20.30;;
14088;SDS011;7120;52.890;6.040;2024-03-08T12:07:41;23.33;;;20.93;;
14088;SDS011;7120;52.890;6.040;2024-03-08T12:10:20;21.73;;;19.43;;
14088;SDS011;7120;52.890;6.040;2024-03-08T12:12:48;22.87;;;20.57;;
14088;SDS011;7120;52.890;6.040;2024-03-08T12:15:16;21.60;;;19.40;;
14088;SDS011;7120;52.890;6.040;2024-03-08T12:17:43;22.37;;;20.07;;
14088;SDS011;7120;52.890;6.040;2024-03-08T12:20:23;21.53;;;19.37;;
14088;SDS011;7120;52.890;6.040;2024-03-08T12:22:55;22.17;;;19.97;;
14088;SDS011;7120;52.890;6.040;2024-03-08T12:25:21;23.10;;;20.70;;
14088;SDS011;7120;52.890;6.040;2024-03-08T12:27:47;23.27;;;19.53;;
14088;SDS011;7120;52.890;6.040;2024-03-08T12:32:50;23.40;;;20.90;;
14088;SDS011;7120;52.890;6.040;2024-03-08T12:35:19;21.97;;;19.73;;
14088;SDS011;7120;52.890;6.040;2024-03-08T12:37:47;23.73;;;20.03;;
14088;SDS011;7120;52.890;6.040;2024-03-08T12:40:14;21.53;;;19.33;;
14088;SDS011;7120;52.890;6.040;2024-03-08T12:42:41;20.67;;;18.53;;
14088;SDS011;7120;52.890;6.040;2024-03-08T12:45:08;22.30;;;19.97;;
14088;SDS011;7120;52.890;6.040;2024-03-08T12:47:35;21.50;;;19.50;;
14088;SDS011;7120;52.890;6.040;2024-03-08T12:50:03;19.27;;;17.27;;
14088;SDS011;7120;52.890;6.040;2024-03-08T12:52:29;21.70;;;19.40;;
14088;SDS011;7120;52.890;6.040;2024-03-08T12:54:55;22.53;;;20.33;;
14088;SDS011;7120;52.890;6.040;2024-03-08T12:57:20;22.00;;;19.80;;
14088;SDS011;7120;52.890;6.040;2024-03-08T12:59:46;21.17;;;19.17;;
14088;SDS011;7120;52.890;6.040;2024-03-08T13:02:11;20.93;;;18.83;;
14088;SDS011;7120;52.890;6.040;2024-03-08T13:04:36;21.67;;;18.97;;
14088;SDS011;7120;52.890;6.040;2024-03-08T13:07:02;19.70;;;17.80;;
14088;SDS011;7120;52.890;6.040;2024-03-08T13:09:28;21.47;;;19.30;;
14088;SDS011;7120;52.890;6.040;2024-03-08T13:11:53;20.93;;;18.83;;
14088;SDS011;7120;52.890;6.040;2024-03-08T13:14:20;21.43;;;19.17;;
14088;SDS011;7120;52.890;6.040;2024-03-08T13:16:45;21.27;;;19.13;;
14088;SDS011;7120;52.890;6.040;2024-03-08T13:19:12;21.73;;;19.63;;
14088;SDS011;7120;52.890;6.040;2024-03-08T13:21:38;22.50;;;20.10;;
14088;SDS011;7120;52.890;6.040;2024-03-08T13:24:03;22.10;;;19.90;;
14088;SDS011;7120;52.890;6.040;2024-03-08T13:26:32;21.67;;;19.30;;
14088;SDS011;7120;52.890;6.040;2024-03-08T13:29:00;22.53;;;20.23;;
14088;SDS011;7120;52.890;6.040;2024-03-08T13:31:25;20.93;;;18.80;;
14088;SDS011;7120;52.890;6.040;2024-03-08T13:33:51;21.57;;;19.57;;
14088;SDS011;7120;52.890;6.040;2024-03-08T13:36:22;20.63;;;18.53;;
14088;SDS011;7120;52.890;6.040;2024-03-08T13:38:53;21.17;;;19.03;;
14088;SDS011;7120;52.890;6.040;2024-03-08T13:41:19;22.77;;;20.10;;
14088;SDS011;7120;52.890;6.040;2024-03-08T13:43:47;21.87;;;19.67;;
14088;SDS011;7120;52.890;6.040;2024-03-08T13:46:14;23.23;;;20.83;;
14088;SDS011;7120;52.890;6.040;2024-03-08T13:48:40;26.47;;;21.77;;
14088;SDS011;7120;52.890;6.040;2024-03-08T13:51:06;22.23;;;19.87;;
14088;SDS011;7120;52.890;6.040;2024-03-08T13:53:32;20.47;;;18.37;;
14088;SDS011;7120;52.890;6.040;2024-03-08T13:56:03;20.90;;;18.90;;
14088;SDS011;7120;52.890;6.040;2024-03-08T13:58:30;25.07;;;22.33;;
14088;SDS011;7120;52.890;6.040;2024-03-08T14:00:56;21.43;;;19.33;;
14088;SDS011;7120;52.890;6.040;2024-03-08T14:03:21;21.83;;;19.60;;
14088;SDS011;7120;52.890;6.040;2024-03-08T14:05:48;21.27;;;19.17;;
14088;SDS011;7120;52.890;6.040;2024-03-08T14:08:14;21.30;;;19.10;;
14088;SDS011;7120;52.890;6.040;2024-03-08T14:10:41;20.07;;;17.93;;
14088;SDS011;7120;52.890;6.040;2024-03-08T14:13:07;20.47;;;18.10;;
14088;SDS011;7120;52.890;6.040;2024-03-08T14:15:33;19.80;;;17.73;;
14088;SDS011;7120;52.890;6.040;2024-03-08T14:17:59;20.53;;;18.43;;
14088;SDS011;7120;52.890;6.040;2024-03-08T14:20:26;20.73;;;18.60;;
14088;SDS011;7120;52.890;6.040;2024-03-08T14:22:53;21.17;;;18.83;;
14088;SDS011;7120;52.890;6.040;2024-03-08T14:25:20;20.90;;;18.80;;
14088;SDS011;7120;52.890;6.040;2024-03-08T14:27:48;21.47;;;19.27;;
14088;SDS011;7120;52.890;6.040;2024-03-08T14:30:14;22.03;;;19.70;;
14088;SDS011;7120;52.890;6.040;2024-03-08T14:32:57;20.80;;;18.60;;
14088;SDS011;7120;52.890;6.040;2024-03-08T14:35:23;22.00;;;19.20;;
14088;SDS011;7120;52.890;6.040;2024-03-08T14:37:50;21.93;;;19.63;;
14088;SDS011;7120;52.890;6.040;2024-03-08T14:40:15;22.93;;;20.53;;